createdAt,value
2018-12-09T00:02:16.708Z,4.90
2018-12-09T00:04:45.239Z,4.90
2018-12-09T00:07:13.766Z,4.90
2018-12-09T00:09:42.289Z,5.00
2018-12-09T00:12:10.803Z,5.10
2018-12-09T00:14:39.332Z,5.00
2018-12-09T00:17:07.857Z,5.10
2018-12-09T00:19:36.421Z,5.10
2018-12-09T00:22:05.117Z,5.10
2018-12-09T00:24:33.648Z,5.20
2018-12-09T00:27:02.169Z,5.20
2018-12-09T00:29:30.707Z,5.30
2018-12-09T00:31:59.221Z,5.30
2018-12-09T00:34:27.750Z,5.30
2018-12-09T00:36:56.283Z,5.30
2018-12-09T00:39:24.791Z,5.30
2018-12-09T00:41:53.385Z,5.40
2018-12-09T00:44:21.919Z,5.40
2018-12-09T00:46:50.477Z,5.40
2018-12-09T00:49:19.021Z,5.40
2018-12-09T00:51:47.563Z,5.40
2018-12-09T00:54:16.100Z,5.40
2018-12-09T00:56:44.592Z,5.40
2018-12-09T00:59:13.134Z,5.40
2018-12-09T01:01:41.664Z,5.30
2018-12-09T01:04:10.243Z,5.30
2018-12-09T01:06:38.810Z,5.30
2018-12-09T01:09:08.179Z,5.30
2018-12-09T01:11:36.730Z,5.20
2018-12-09T01:14:05.329Z,5.20
2018-12-09T01:16:33.849Z,5.20
2018-12-09T01:19:02.400Z,5.20
2018-12-09T01:21:30.919Z,5.20
2018-12-09T01:23:59.533Z,5.20
2018-12-09T01:26:28.550Z,5.20
2018-12-09T01:28:57.112Z,5.20
2018-12-09T01:31:25.623Z,5.20
2018-12-09T01:33:54.282Z,5.20
2018-12-09T01:36:22.855Z,5.20
2018-12-09T01:38:51.394Z,5.30
2018-12-09T01:41:19.932Z,5.30
2018-12-09T01:43:48.454Z,5.30
2018-12-09T01:46:17.004Z,5.30
2018-12-09T01:48:46.073Z,5.30
2018-12-09T01:51:14.605Z,5.30
2018-12-09T01:54:15.248Z,5.30
2018-12-09T01:56:43.900Z,5.40
2018-12-09T01:59:12.445Z,5.40
2018-12-09T02:01:41.119Z,5.40
2018-12-09T02:04:09.913Z,5.40
2018-12-09T02:06:38.466Z,5.40
2018-12-09T02:09:09.417Z,5.50
2018-12-09T02:11:37.915Z,5.40
2018-12-09T02:14:06.598Z,5.50
2018-12-09T02:16:35.856Z,5.50
2018-12-09T02:19:26.707Z,5.50
2018-12-09T02:21:55.607Z,5.50
2018-12-09T02:24:24.281Z,5.50
2018-12-09T02:26:52.840Z,5.50
2018-12-09T02:29:21.388Z,5.50
2018-12-09T02:31:49.901Z,5.50
2018-12-09T02:34:18.460Z,5.50
2018-12-09T02:36:47.001Z,5.50
2018-12-09T02:39:15.534Z,5.50
2018-12-09T02:41:44.074Z,5.50
2018-12-09T02:44:12.600Z,5.60
2018-12-09T02:46:41.125Z,5.60
2018-12-09T02:49:09.681Z,5.60
2018-12-09T02:51:38.281Z,5.70
2018-12-09T02:54:06.974Z,5.70
2018-12-09T02:56:35.944Z,5.70
2018-12-09T02:59:04.478Z,5.70
2018-12-09T03:01:33.013Z,5.70
2018-12-09T03:04:01.530Z,5.80
2018-12-09T03:06:30.028Z,5.80
2018-12-09T03:08:58.596Z,5.80
2018-12-09T03:11:27.245Z,5.80
2018-12-09T03:13:55.899Z,5.80
2018-12-09T03:16:24.445Z,5.90
2018-12-09T03:18:53.731Z,5.90
2018-12-09T03:21:22.261Z,5.80
2018-12-09T03:23:50.806Z,5.90
2018-12-09T03:26:19.364Z,5.90
2018-12-09T03:28:47.902Z,5.90
2018-12-09T03:31:16.429Z,5.90
2018-12-09T03:33:45.013Z,5.90
2018-12-09T03:36:13.551Z,5.90
2018-12-09T03:38:42.120Z,5.90
2018-12-09T03:41:10.664Z,6.00
2018-12-09T03:43:39.249Z,6.00
2018-12-09T03:46:07.799Z,6.00
2018-12-09T03:48:36.348Z,6.00
2018-12-09T03:51:04.889Z,6.00
2018-12-09T03:53:33.880Z,5.90
2018-12-09T03:56:02.406Z,5.90
2018-12-09T03:58:30.953Z,5.90
2018-12-09T04:00:59.498Z,5.90
2018-12-09T04:03:28.053Z,5.90
2018-12-09T04:05:56.590Z,5.90
2018-12-09T04:08:25.514Z,5.90
2018-12-09T04:10:54.078Z,5.90
2018-12-09T04:13:22.624Z,5.90
2018-12-09T04:15:51.155Z,6.00
2018-12-09T04:18:19.702Z,5.90
2018-12-09T04:20:48.249Z,6.00
2018-12-09T04:23:16.754Z,6.10
2018-12-09T04:25:45.295Z,6.10
2018-12-09T04:28:14.265Z,6.10
2018-12-09T04:30:42.808Z,6.10
2018-12-09T04:33:11.356Z,6.10
2018-12-09T04:35:39.870Z,6.10
2018-12-09T04:38:08.418Z,6.20
2018-12-09T04:40:36.931Z,6.20
2018-12-09T04:43:05.465Z,6.20
2018-12-09T04:45:33.991Z,6.20
2018-12-09T04:48:02.551Z,6.10
2018-12-09T04:50:31.088Z,6.10
2018-12-09T04:52:59.619Z,6.20
2018-12-09T04:55:28.148Z,6.20
2018-12-09T04:57:56.661Z,6.20
2018-12-09T05:00:36.394Z,6.30
2018-12-09T05:03:04.926Z,6.30
2018-12-09T05:05:33.477Z,6.30
2018-12-09T05:08:02.010Z,6.30
2018-12-09T05:10:32.704Z,6.30
2018-12-09T05:13:04.277Z,6.20
2018-12-09T05:15:32.842Z,6.20
2018-12-09T05:18:01.426Z,6.10
2018-12-09T05:20:29.952Z,6.10
2018-12-09T05:22:58.998Z,6.10
2018-12-09T05:25:27.565Z,6.10
2018-12-09T05:27:56.125Z,6.00
2018-12-09T05:30:24.774Z,6.00
2018-12-09T05:32:53.318Z,6.00
2018-12-09T05:35:22.065Z,6.00
2018-12-09T05:37:50.601Z,6.00
2018-12-09T05:40:19.145Z,6.00
2018-12-09T05:42:47.668Z,6.00
2018-12-09T05:45:16.178Z,6.10
2018-12-09T05:47:44.880Z,6.00
2018-12-09T05:50:13.459Z,6.00
2018-12-09T05:52:41.983Z,6.00
2018-12-09T05:55:10.496Z,6.00
2018-12-09T05:57:39.015Z,6.00
2018-12-09T06:00:07.764Z,6.00
2018-12-09T06:03:07.243Z,5.90
2018-12-09T06:05:36.222Z,6.00
2018-12-09T06:08:04.763Z,6.00
2018-12-09T06:10:33.308Z,6.00
2018-12-09T06:13:01.827Z,6.00
2018-12-09T06:15:30.446Z,6.00
2018-12-09T06:17:59.200Z,6.00
2018-12-09T06:20:27.831Z,6.00
2018-12-09T06:22:56.355Z,6.00
2018-12-09T06:25:24.925Z,6.00
2018-12-09T06:27:53.460Z,6.00
2018-12-09T06:30:21.996Z,5.90
2018-12-09T06:32:50.571Z,5.90
2018-12-09T06:35:19.093Z,6.00
2018-12-09T06:37:47.608Z,5.90
2018-12-09T06:40:16.199Z,5.90
2018-12-09T06:42:44.848Z,5.90
2018-12-09T06:45:13.497Z,5.90
2018-12-09T06:47:42.149Z,5.90
2018-12-09T06:50:11.592Z,5.90
2018-12-09T06:52:40.672Z,5.90
2018-12-09T06:55:09.882Z,5.80
2018-12-09T06:57:38.399Z,5.80
2018-12-09T07:00:08.675Z,5.80
2018-12-09T07:02:37.253Z,5.80
2018-12-09T07:05:07.153Z,5.70
2018-12-09T07:07:35.715Z,5.70
2018-12-09T07:10:06.753Z,5.70
2018-12-09T07:12:35.326Z,5.70
2018-12-09T07:15:04.002Z,5.70
2018-12-09T07:17:32.527Z,5.60
2018-12-09T07:20:01.137Z,5.70
2018-12-09T07:22:29.680Z,5.60
2018-12-09T07:24:58.253Z,5.70
2018-12-09T07:27:26.792Z,5.70
2018-12-09T07:30:02.141Z,5.70
2018-12-09T07:32:26.359Z,5.60
2018-12-09T07:34:54.907Z,5.70
2018-12-09T07:37:25.566Z,5.70
2018-12-09T07:39:54.384Z,5.60
2018-12-09T07:42:22.995Z,5.70
2018-12-09T07:44:51.728Z,5.70
2018-12-09T07:47:20.259Z,5.70
2018-12-09T07:49:49.601Z,5.60
2018-12-09T07:52:20.422Z,5.60
2018-12-09T07:54:49.005Z,5.70
2018-12-09T07:57:17.539Z,5.60
2018-12-09T07:59:46.061Z,5.60
2018-12-09T08:02:14.573Z,5.60
2018-12-09T08:04:43.084Z,5.60
2018-12-09T08:07:11.631Z,5.60
2018-12-09T08:09:40.147Z,5.70
2018-12-09T08:12:08.716Z,5.70
2018-12-09T08:14:37.973Z,5.60
2018-12-09T08:17:06.581Z,5.70
2018-12-09T08:19:40.760Z,5.70
2018-12-09T08:22:09.379Z,5.70
2018-12-09T08:24:37.920Z,5.80
2018-12-09T08:27:06.464Z,5.80
2018-12-09T08:29:35.016Z,5.80
2018-12-09T08:32:04.038Z,5.80
2018-12-09T08:34:32.557Z,5.80
2018-12-09T08:37:01.101Z,5.80
2018-12-09T08:39:29.660Z,5.90
2018-12-09T08:41:58.210Z,5.90
2018-12-09T08:44:26.739Z,5.90
2018-12-09T08:46:55.298Z,6.00
2018-12-09T08:49:23.839Z,6.10
2018-12-09T08:51:52.388Z,6.10
2018-12-09T08:54:20.950Z,6.20
2018-12-09T08:56:49.473Z,6.30
2018-12-09T08:59:18.024Z,6.30
2018-12-09T09:01:46.561Z,6.40
2018-12-09T09:04:15.081Z,6.40
2018-12-09T09:06:43.639Z,6.40
2018-12-09T09:09:12.218Z,6.30
2018-12-09T09:11:40.736Z,6.40
2018-12-09T09:14:09.247Z,6.40
2018-12-09T09:16:37.929Z,6.40
2018-12-09T09:19:06.509Z,6.40
2018-12-09T09:21:35.066Z,6.50
2018-12-09T09:24:03.777Z,6.40
2018-12-09T09:26:32.319Z,6.50
2018-12-09T09:29:00.911Z,6.50
2018-12-09T09:31:29.477Z,6.60
2018-12-09T09:33:58.021Z,6.50
2018-12-09T09:36:26.575Z,6.60
2018-12-09T09:38:55.907Z,6.60
2018-12-09T09:41:26.936Z,6.70
2018-12-09T09:43:55.516Z,6.80
2018-12-09T09:46:24.049Z,6.80
2018-12-09T09:48:52.743Z,6.80
2018-12-09T09:51:21.264Z,6.90
2018-12-09T09:53:49.795Z,6.90
2018-12-09T09:56:18.356Z,6.90
2018-12-09T09:58:46.877Z,6.90
2018-12-09T10:01:15.397Z,6.80
2018-12-09T10:03:43.893Z,6.80
2018-12-09T10:06:12.427Z,6.90
2018-12-09T10:08:41.031Z,6.80
2018-12-09T10:11:09.747Z,6.90
2018-12-09T10:13:38.457Z,7.00
2018-12-09T10:16:07.067Z,7.00
2018-12-09T10:18:35.812Z,6.90
2018-12-09T10:21:04.560Z,6.90
2018-12-09T10:23:33.138Z,6.90
2018-12-09T10:29:00.827Z,6.90
2018-12-09T10:31:29.395Z,6.90
2018-12-09T10:33:58.034Z,6.80
2018-12-09T10:36:26.616Z,6.90
2018-12-09T10:38:55.130Z,6.80
2018-12-09T10:41:23.755Z,6.80
2018-12-09T10:43:52.304Z,6.80
2018-12-09T10:46:21.866Z,6.80
2018-12-09T10:48:50.602Z,6.80
2018-12-09T10:51:19.138Z,6.80
2018-12-09T10:53:48.207Z,6.90
2018-12-09T10:56:16.837Z,6.90
2018-12-09T10:58:45.395Z,6.90
2018-12-09T11:01:19.219Z,6.90
2018-12-09T11:03:48.224Z,6.90
2018-12-09T11:06:16.978Z,6.90
2018-12-09T11:08:45.646Z,6.90
2018-12-09T11:11:14.264Z,6.90
2018-12-09T11:13:42.822Z,6.90
2018-12-09T11:16:11.442Z,6.90
2018-12-09T11:18:40.023Z,6.90
2018-12-09T11:21:08.618Z,6.90
2018-12-09T11:23:37.168Z,6.90
2018-12-09T11:26:05.741Z,6.90
2018-12-09T11:28:34.380Z,7.00
2018-12-09T11:31:02.916Z,7.00
2018-12-09T11:33:31.868Z,7.10
2018-12-09T11:36:00.385Z,7.10
2018-12-09T11:38:28.965Z,7.10
2018-12-09T11:40:57.536Z,7.00
2018-12-09T11:43:26.072Z,7.00
2018-12-09T11:45:54.607Z,7.10
2018-12-09T11:48:23.161Z,7.20
2018-12-09T11:50:51.733Z,7.20
2018-12-09T11:53:20.256Z,7.20
2018-12-09T11:55:48.804Z,7.20
2018-12-09T11:58:17.338Z,7.20
2018-12-09T12:00:45.860Z,7.20
2018-12-09T12:03:14.392Z,7.20
2018-12-09T12:05:42.933Z,7.20
2018-12-09T12:08:11.465Z,7.20
2018-12-09T12:10:40.000Z,7.10
2018-12-09T12:13:08.648Z,7.10
2018-12-09T12:15:37.207Z,7.00
2018-12-09T12:18:05.795Z,7.00
2018-12-09T12:20:38.847Z,7.00
2018-12-09T12:23:07.450Z,7.00
2018-12-09T12:25:36.087Z,7.00
2018-12-09T12:28:04.695Z,7.00
2018-12-09T12:30:33.237Z,7.00
2018-12-09T12:33:01.811Z,7.00
2018-12-09T12:35:30.337Z,7.00
2018-12-09T12:37:58.867Z,7.00
2018-12-09T12:40:27.395Z,7.00
2018-12-09T12:42:57.271Z,7.00
2018-12-09T12:45:26.036Z,6.90
2018-12-09T12:47:55.211Z,6.90
2018-12-09T12:50:23.905Z,6.90
2018-12-09T12:52:53.034Z,6.90
2018-12-09T12:55:21.616Z,6.90
2018-12-09T12:57:50.219Z,6.80
2018-12-09T13:00:19.002Z,6.80
2018-12-09T13:02:47.630Z,6.80
2018-12-09T13:05:16.195Z,6.70
2018-12-09T13:07:44.865Z,6.70
2018-12-09T13:10:13.447Z,6.70
2018-12-09T13:12:42.000Z,6.70
2018-12-09T13:15:10.741Z,6.60
2018-12-09T13:17:39.297Z,6.70
2018-12-09T13:20:08.905Z,6.70
2018-12-09T13:22:37.430Z,6.70
2018-12-09T13:25:06.682Z,6.70
2018-12-09T13:27:35.241Z,6.60
2018-12-09T13:30:04.443Z,6.60
2018-12-09T13:32:32.959Z,6.50
2018-12-09T13:35:01.512Z,6.50
2018-12-09T13:37:30.140Z,6.50
2018-12-09T13:39:58.674Z,6.40
2018-12-09T13:42:27.236Z,6.40
2018-12-09T13:44:55.885Z,6.50
2018-12-09T13:47:24.394Z,6.40
2018-12-09T13:49:52.948Z,6.40
2018-12-09T13:52:21.480Z,6.40
2018-12-09T13:54:52.329Z,6.40
2018-12-09T13:57:21.042Z,6.30
2018-12-09T13:59:51.698Z,6.30
2018-12-09T14:02:20.821Z,6.30
2018-12-09T14:04:49.346Z,6.30
2018-12-09T14:07:17.913Z,6.30
2018-12-09T14:09:46.444Z,6.30
2018-12-09T14:12:15.093Z,6.30
2018-12-09T14:14:43.645Z,6.30
2018-12-09T14:17:12.833Z,6.30
2018-12-09T14:19:41.498Z,6.30
2018-12-09T14:22:10.038Z,6.30
2018-12-09T14:24:38.536Z,6.30
2018-12-09T14:27:07.106Z,6.30
2018-12-09T14:29:35.645Z,6.30
2018-12-09T14:32:04.543Z,6.30
2018-12-09T14:34:33.312Z,6.30
2018-12-09T14:37:01.894Z,6.20
2018-12-09T14:39:30.434Z,6.20
2018-12-09T14:41:59.032Z,6.00
2018-12-09T14:44:29.352Z,5.90
2018-12-09T14:46:58.105Z,5.90
2018-12-09T14:49:26.659Z,5.90
2018-12-09T14:51:56.246Z,5.80
2018-12-09T14:54:24.857Z,5.80
2018-12-09T14:56:53.537Z,5.70
2018-12-09T14:59:22.076Z,5.70
2018-12-09T15:01:50.619Z,5.70
2018-12-09T15:04:19.179Z,5.70
2018-12-09T15:06:47.727Z,5.60
2018-12-09T15:09:16.271Z,5.60
2018-12-09T15:11:44.827Z,5.70
2018-12-09T15:14:13.486Z,5.60
2018-12-09T15:16:42.287Z,5.60
2018-12-09T15:19:10.840Z,5.50
2018-12-09T15:21:41.426Z,5.50
2018-12-09T15:24:09.949Z,5.50
2018-12-09T15:26:38.446Z,5.50
2018-12-09T15:29:06.975Z,5.50
2018-12-09T15:31:35.498Z,5.50
2018-12-09T15:34:04.127Z,5.50
2018-12-09T15:36:32.711Z,5.50
2018-12-09T15:39:01.215Z,5.50
2018-12-09T15:41:29.757Z,5.60
2018-12-09T15:43:58.282Z,5.60
2018-12-09T15:46:26.836Z,5.50
2018-12-09T15:48:55.452Z,5.60
2018-12-09T15:51:24.114Z,5.60
2018-12-09T15:53:54.917Z,5.60
2018-12-09T15:56:23.426Z,5.60
2018-12-09T15:58:51.937Z,5.60
2018-12-09T16:01:20.466Z,5.60
2018-12-09T16:03:49.229Z,5.60
2018-12-09T16:06:17.773Z,5.60
2018-12-09T16:08:46.291Z,5.60
2018-12-09T16:11:14.807Z,5.60
2018-12-09T16:13:43.371Z,5.50
2018-12-09T16:16:12.936Z,5.50
2018-12-09T16:18:41.448Z,5.50
2018-12-09T16:21:10.003Z,5.50
2018-12-09T16:23:38.566Z,5.50
2018-12-09T16:26:07.098Z,5.50
2018-12-09T16:28:35.729Z,5.50
2018-12-09T16:31:08.248Z,5.50
2018-12-09T16:33:36.835Z,5.40
2018-12-09T16:36:14.755Z,5.40
2018-12-09T16:38:43.302Z,5.40
2018-12-09T16:41:11.923Z,5.30
2018-12-09T16:43:40.482Z,5.30
2018-12-09T16:46:12.904Z,5.20
2018-12-09T16:48:43.575Z,5.20
2018-12-09T16:51:12.144Z,5.30
2018-12-09T16:53:40.674Z,5.30
2018-12-09T16:56:09.283Z,5.30
2018-12-09T16:58:37.959Z,5.30
2018-12-09T17:01:06.578Z,5.40
2018-12-09T17:03:35.135Z,5.40
2018-12-09T17:06:09.575Z,5.40
2018-12-09T17:08:38.303Z,5.40
2018-12-09T17:11:06.833Z,5.40
2018-12-09T17:13:35.397Z,5.40
2018-12-09T17:16:04.119Z,5.40
2018-12-09T17:18:32.668Z,5.40
2018-12-09T17:21:01.257Z,5.30
2018-12-09T17:23:32.903Z,5.40
2018-12-09T17:26:06.806Z,5.40
2018-12-09T17:28:37.397Z,5.30
2018-12-09T17:31:06.001Z,5.40
2018-12-09T17:33:34.613Z,5.50
2018-12-09T17:36:03.188Z,5.50
2018-12-09T17:38:35.538Z,5.50
2018-12-09T17:41:04.095Z,5.50
2018-12-09T17:43:32.678Z,5.50
2018-12-09T17:46:01.243Z,5.50
2018-12-09T17:48:29.753Z,5.50
2018-12-09T17:51:00.296Z,5.50
2018-12-09T17:53:28.878Z,5.50
2018-12-09T17:55:57.434Z,5.50
2018-12-09T17:58:26.048Z,5.60
2018-12-09T18:00:54.678Z,5.50
2018-12-09T18:03:23.214Z,5.50
2018-12-09T18:05:51.918Z,5.50
2018-12-09T18:08:20.466Z,5.50
2018-12-09T18:13:46.186Z,5.50
2018-12-09T18:16:15.777Z,5.50
2018-12-09T18:18:44.349Z,5.50
2018-12-09T18:21:13.936Z,5.50
2018-12-09T18:23:42.468Z,5.40
2018-12-09T18:26:11.038Z,5.40
2018-12-09T18:28:39.601Z,5.40
2018-12-09T18:31:08.210Z,5.40
2018-12-09T18:33:37.278Z,5.50
2018-12-09T18:36:05.947Z,5.50
2018-12-09T18:38:34.616Z,5.50
2018-12-09T18:41:03.165Z,5.40
2018-12-09T18:43:32.862Z,5.40
2018-12-09T18:46:01.408Z,5.40
2018-12-09T18:48:30.290Z,5.40
2018-12-09T18:50:58.877Z,5.40
2018-12-09T18:53:29.856Z,5.40
2018-12-09T18:55:58.417Z,5.40
2018-12-09T18:58:26.953Z,5.40
2018-12-09T19:00:55.595Z,5.40
2018-12-09T19:03:24.142Z,5.30
2018-12-09T19:05:52.850Z,5.30
2018-12-09T19:08:21.513Z,5.30
2018-12-09T19:10:51.110Z,5.30
2018-12-09T19:13:19.766Z,5.20
2018-12-09T19:15:48.323Z,5.20
2018-12-09T19:18:17.192Z,5.30
2018-12-09T19:20:45.781Z,5.20
2018-12-09T19:23:14.387Z,5.30
2018-12-09T19:25:43.008Z,5.20
2018-12-09T19:28:11.555Z,5.30
2018-12-09T19:30:48.025Z,5.20
2018-12-09T19:33:10.797Z,5.20
2018-12-09T19:35:39.369Z,5.20
2018-12-09T19:38:07.895Z,5.20
2018-12-09T19:40:36.540Z,5.20
2018-12-09T19:43:05.103Z,5.10
2018-12-09T19:45:33.742Z,5.10
2018-12-09T19:48:02.340Z,5.20
2018-12-09T19:50:30.946Z,5.20
2018-12-09T19:52:59.570Z,5.20
2018-12-09T19:55:28.217Z,5.20
2018-12-09T19:57:56.852Z,5.20
2018-12-09T20:00:25.397Z,5.20
2018-12-09T20:02:53.951Z,5.20
2018-12-09T20:05:22.539Z,5.20
2018-12-09T20:07:51.151Z,5.20
2018-12-09T20:10:19.758Z,5.10
2018-12-09T20:12:48.458Z,5.10
2018-12-09T20:15:17.079Z,5.20
2018-12-09T20:17:45.674Z,5.10
2018-12-09T20:20:14.293Z,5.20
2018-12-09T20:22:42.847Z,5.10
2018-12-09T20:25:11.469Z,5.20
2018-12-09T20:27:40.013Z,5.20
2018-12-09T20:30:10.129Z,5.10
2018-12-09T20:32:38.646Z,5.10
2018-12-09T20:35:07.259Z,5.10
2018-12-09T20:37:35.821Z,5.10
2018-12-09T20:40:04.980Z,5.00
2018-12-09T20:42:33.590Z,4.90
2018-12-09T20:45:02.200Z,4.90
2018-12-09T20:47:30.786Z,4.90
2018-12-09T20:49:59.443Z,4.90
2018-12-09T20:52:27.989Z,4.90
2018-12-09T20:54:56.527Z,4.90
2018-12-09T20:57:25.063Z,4.90
2018-12-09T20:59:54.614Z,4.90
2018-12-09T21:02:23.260Z,4.90
2018-12-09T21:04:51.834Z,5.00
2018-12-09T21:07:20.510Z,5.00
2018-12-09T21:09:49.089Z,4.90
2018-12-09T21:12:17.644Z,4.90
2018-12-09T21:14:46.237Z,4.90
2018-12-09T21:17:14.903Z,4.90
2018-12-09T21:19:43.464Z,5.00
2018-12-09T21:22:11.997Z,5.00
2018-12-09T21:24:40.583Z,5.00
2018-12-09T21:27:09.213Z,5.00
2018-12-09T21:29:37.760Z,5.00
2018-12-09T21:32:06.368Z,5.00
2018-12-09T21:34:34.932Z,5.00
2018-12-09T21:37:03.463Z,5.00
2018-12-09T21:39:32.047Z,5.00
2018-12-09T21:42:00.570Z,4.90
2018-12-09T21:44:29.113Z,5.00
2018-12-09T21:46:58.659Z,5.00
2018-12-09T21:49:27.221Z,5.00
2018-12-09T21:51:55.769Z,5.00
2018-12-09T21:54:24.313Z,4.90
2018-12-09T21:56:52.853Z,4.90
2018-12-09T21:59:21.381Z,4.90
2018-12-09T22:01:49.922Z,4.90
2018-12-09T22:04:18.439Z,4.90
2018-12-09T22:06:46.963Z,4.90
2018-12-09T22:09:15.557Z,4.90
2018-12-09T22:11:44.078Z,4.80
2018-12-09T22:14:12.669Z,4.80
2018-12-09T22:16:41.245Z,4.80
2018-12-09T22:19:09.784Z,4.80
2018-12-09T22:21:38.346Z,4.80
2018-12-09T22:24:06.885Z,4.80
2018-12-09T22:26:35.420Z,4.80
2018-12-09T22:29:04.066Z,4.80
2018-12-09T22:31:32.612Z,4.70
2018-12-09T22:34:01.154Z,4.70
2018-12-09T22:36:29.679Z,4.60
2018-12-09T22:38:58.209Z,4.60
2018-12-09T22:41:26.748Z,4.60
2018-12-09T22:43:55.318Z,4.60
2018-12-09T22:46:23.828Z,4.50
2018-12-09T22:48:52.393Z,4.50
2018-12-09T22:51:20.949Z,4.50
2018-12-09T22:53:49.597Z,4.50
2018-12-09T22:56:18.149Z,4.40
2018-12-09T22:58:46.722Z,4.50
2018-12-09T23:01:20.355Z,4.40
2018-12-09T23:03:48.944Z,4.40
2018-12-09T23:06:17.502Z,4.40
2018-12-09T23:08:46.037Z,4.40
2018-12-09T23:11:14.591Z,4.40
2018-12-09T23:13:43.116Z,4.40
2018-12-09T23:16:12.287Z,4.40
2018-12-09T23:18:40.864Z,4.30
2018-12-09T23:21:09.437Z,4.30
2018-12-09T23:23:37.988Z,4.30
2018-12-09T23:26:06.729Z,4.40
2018-12-09T23:28:35.345Z,4.40
2018-12-09T23:31:04.152Z,4.40
2018-12-09T23:33:32.672Z,4.40
2018-12-09T23:36:01.193Z,4.30
2018-12-09T23:38:29.738Z,4.20
2018-12-09T23:40:58.305Z,4.10
2018-12-09T23:43:26.871Z,4.00
2018-12-09T23:45:55.433Z,4.00
2018-12-09T23:48:23.989Z,3.90
2018-12-09T23:50:52.508Z,3.80
2018-12-09T23:53:21.066Z,3.70
2018-12-09T23:55:49.676Z,3.60
2018-12-09T23:58:18.218Z,3.40
